EGLF METAR and TAF | Updated Today

EGLF METAR

Farnborough Airport

Observation time: 30 min. ago

EGLF 052050Z AUTO 25002KT 9999 NCD M02/M04 Q1046

Need help? Read our tutorial on how to read METARs or read the parsed version below.

Farnborough Airport (EGLF) METAR

  • Weather conditions on Sun, 05 Feb 2023 20:50:00 +0000 (30 min. ago):
  • Present conditions: Dry
  • Clouds: Nil cloud detected
  • Visibility: Greater than 10 km
  • Wind: 250 degrees at 2 knots
  • Temperature: -2 celsius
  • Dew point: -4 celsius
  • Pressure: 1046 millibars
  • Remarks: None


Useful to know...

EGLF TAF

Farnborough Airport

TAF EGLF 051705Z 0518/0521 01005KT CAVOK BECMG 0518/0521 8000
Observation time: 4:15 hr. ago
Need help? Read our tutorial on how to read TAFs or read the parsed version below.

Parsed version of TAF for Farnborough Airport (EGLF)

  • From 05 February at 18:00 UTC, to day 05 of the month at 21:00 UTC
  • Visibility: Greater than 10 km
  • Wind: 10 degrees at 5
  • Expected to arise soon, from 05 February at 18:00 UTC, to day 05 of the month at 21:00 UTC
  • Visibility: 8000 meters